Time,TemperatureF,DewpointF,PressureIn,WindDirection,WindDirectionDegrees,WindSpeedMPH,WindSpeedGustMPH,Humidity,HourlyPrecipIn,Conditions,Clouds,dailyrainin,SoftwareType,DateUTC
2013-10-02 00:03:00,63.7,59.8,29.83,South,180,1.7,-999.0,87,-99.99,,,0.00,Acu-Link.com,2013-10-02 04:03:00,
2013-10-02 00:19:00,63.7,59.8,29.83,SSE,157,4.7,-999.0,87,-99.99,,,0.00,Acu-Link.com,2013-10-02 04:19:00,
2013-10-02 00:34:00,63.7,59.8,29.83,SSE,157,3.2,-999.0,87,-99.99,,,0.00,Acu-Link.com,2013-10-02 04:34:00,
2013-10-02 00:49:00,63.7,60.1,29.83,SSE,157,2.2,-999.0,88,-99.99,,,0.00,Acu-Link.com,2013-10-02 04:49:00,
2013-10-02 01:04:00,63.5,59.9,29.83,SSE,157,1.7,-999.0,88,-99.99,,,0.00,Acu-Link.com,2013-10-02 05:04:00,
2013-10-02 01:20:00,63.5,59.9,29.83,South,180,3.7,-999.0,88,-99.99,,,0.00,Acu-Link.com,2013-10-02 05:20:00,
2013-10-02 01:35:00,64.0,60.4,29.83,WSW,247,2.7,-999.0,88,-99.99,,,0.00,Acu-Link.com,2013-10-02 05:35:00,
2013-10-02 01:50:00,64.0,60.4,29.83,South,180,2.7,-999.0,88,-99.99,,,0.00,Acu-Link.com,2013-10-02 05:50:00,
2013-10-02 02:06:00,64.0,60.4,29.84,SSW,202,3.7,-999.0,88,-99.99,,,0.00,Acu-Link.com,2013-10-02 06:06:00,
2013-10-02 02:21:00,64.0,60.4,29.84,South,180,2.7,-999.0,88,-99.99,,,0.00,Acu-Link.com,2013-10-02 06:21:00,
2013-10-02 02:36:00,63.9,60.6,29.84,NNW,337,2.7,-999.0,89,-99.99,,,0.00,Acu-Link.com,2013-10-02 06:36:00,
2013-10-02 02:51:00,63.7,60.4,29.84,WSW,247,1.1,-999.0,89,-99.99,,,0.00,Acu-Link.com,2013-10-02 06:51:00,
2013-10-02 03:10:00,63.7,60.7,29.85,West,270,1.7,-999.0,90,-99.99,,,0.00,Acu-Link.com,2013-10-02 07:10:00,
2013-10-02 03:25:00,63.3,60.3,29.85,West,270,2.7,-999.0,90,-99.99,,,0.00,Acu-Link.com,2013-10-02 07:25:00,
2013-10-02 03:42:00,63.1,60.4,29.85,West,270,3.7,-999.0,91,-99.99,,,0.00,Acu-Link.com,2013-10-02 07:42:00,
2013-10-02 03:57:00,63.0,60.3,29.85,ESE,112,2.2,-999.0,91,-99.99,,,0.00,Acu-Link.com,2013-10-02 07:57:00,
2013-10-02 04:12:00,62.4,60.0,29.86,West,270,0.0,-999.0,92,-99.99,,,0.00,Acu-Link.com,2013-10-02 08:12:00,
2013-10-02 04:28:00,62.1,59.7,29.86,SSW,202,1.1,-999.0,92,-99.99,,,0.00,Acu-Link.com,2013-10-02 08:28:00,
2013-10-02 04:43:00,61.3,59.3,29.86,West,270,1.7,-999.0,93,-99.99,,,0.00,Acu-Link.com,2013-10-02 08:43:00,
2013-10-02 04:58:00,61.2,59.5,29.86,South,180,0.0,-999.0,94,-99.99,,,0.00,Acu-Link.com,2013-10-02 08:58:00,
2013-10-02 05:13:00,60.6,58.9,29.87,SE,135,0.0,-999.0,94,-99.99,,,0.00,Acu-Link.com,2013-10-02 09:13:00,
2013-10-02 05:28:00,59.9,58.5,29.87,South,180,0.0,-999.0,95,-99.99,,,0.00,Acu-Link.com,2013-10-02 09:28:00,
2013-10-02 05:44:00,54.9,53.5,29.90,South,180,0.0,-999.0,95,-99.99,,,0.00,Acu-Link.com,2013-10-02 09:44:00,
2013-10-02 05:59:00,54.1,53.0,29.90,South,180,1.1,-999.0,96,-99.99,,,0.00,Acu-Link.com,2013-10-02 09:59:00,
2013-10-02 06:14:00,53.8,52.7,29.91,South,180,0.0,-999.0,96,-99.99,,,0.00,Acu-Link.com,2013-10-02 10:14:00,
2013-10-02 06:29:00,54.0,53.2,29.92,South,180,0.0,-999.0,97,-99.99,,,0.00,Acu-Link.com,2013-10-02 10:29:00,
2013-10-02 06:44:00,54.7,54.1,29.92,South,180,1.1,-999.0,98,-99.99,,,0.00,Acu-Link.com,2013-10-02 10:44:00,
2013-10-02 06:59:00,55.8,55.2,29.93,North,0,0.0,-999.0,98,-99.99,,,0.00,Acu-Link.com,2013-10-02 10:59:00,
2013-10-02 07:14:00,55.2,54.6,29.93,SE,135,0.0,-999.0,98,-99.99,,,0.00,Acu-Link.com,2013-10-02 11:14:00,
2013-10-02 07:29:00,54.0,53.4,29.94,South,180,0.0,-999.0,98,-99.99,,,0.00,Acu-Link.com,2013-10-02 11:29:00,
2013-10-02 07:44:00,53.4,52.8,29.95,WSW,247,0.0,-999.0,98,-99.99,,,0.00,Acu-Link.com,2013-10-02 11:44:00,
2013-10-02 08:00:00,53.2,52.6,29.95,North,0,0.0,-999.0,98,-99.99,,,0.00,Acu-Link.com,2013-10-02 12:00:00,
2013-10-02 08:15:00,53.4,52.8,29.95,NW,315,1.1,-999.0,98,-99.99,,,0.00,Acu-Link.com,2013-10-02 12:15:00,
2013-10-02 08:30:00,54.3,53.7,29.96,North,0,0.0,-999.0,98,-99.99,,,0.00,Acu-Link.com,2013-10-02 12:30:00,
2013-10-02 08:45:00,56.5,55.9,29.96,WNW,292,1.7,-999.0,98,-99.99,,,0.00,Acu-Link.com,2013-10-02 12:45:00,
2013-10-02 09:01:00,58.1,57.5,29.97,NNW,337,2.2,-999.0,98,-99.99,,,0.00,Acu-Link.com,2013-10-02 13:01:00,
2013-10-02 09:16:00,58.5,57.4,29.98,West,270,2.2,-999.0,96,-99.99,,,0.00,Acu-Link.com,2013-10-02 13:16:00,
2013-10-02 09:31:00,59.5,56.3,29.98,NW,315,2.7,-999.0,89,-99.99,,,0.00,Acu-Link.com,2013-10-02 13:31:00,
2013-10-02 09:46:00,62.4,55.1,29.99,West,270,4.2,-999.0,77,-99.99,,,0.00,Acu-Link.com,2013-10-02 13:46:00,
2013-10-02 10:01:00,64.6,55.4,29.99,NNW,337,3.7,-999.0,72,-99.99,,,0.00,Acu-Link.com,2013-10-02 14:01:00,
2013-10-02 10:16:00,65.8,55.3,30.00,NE,45,2.7,-999.0,69,-99.99,,,0.00,Acu-Link.com,2013-10-02 14:16:00,
2013-10-02 10:31:00,66.7,53.3,30.00,West,270,4.2,-999.0,62,-99.99,,,0.00,Acu-Link.com,2013-10-02 14:31:00,
2013-10-02 10:46:00,67.6,54.1,30.00,NNW,337,3.2,-999.0,62,-99.99,,,0.00,Acu-Link.com,2013-10-02 14:46:00,
2013-10-02 11:01:00,68.2,52.9,30.00,ENE,67,2.7,-999.0,58,-99.99,,,0.00,Acu-Link.com,2013-10-02 15:01:00,
2013-10-02 11:17:00,69.6,53.2,30.00,NNE,22,4.2,-999.0,56,-99.99,,,0.00,Acu-Link.com,2013-10-02 15:17:00,
2013-10-02 11:32:00,70.7,52.2,30.01,NNE,22,5.3,-999.0,52,-99.99,,,0.00,Acu-Link.com,2013-10-02 15:32:00,
2013-10-02 11:47:00,70.7,51.7,30.00,NNW,337,3.2,-999.0,51,-99.99,,,0.00,Acu-Link.com,2013-10-02 15:47:00,
2013-10-02 12:02:00,72.1,50.7,30.01,NNW,337,2.7,-999.0,47,-99.99,,,0.00,Acu-Link.com,2013-10-02 16:02:00,
2013-10-02 12:17:00,72.3,47.9,30.00,NNE,22,2.7,-999.0,42,-99.99,,,0.00,Acu-Link.com,2013-10-02 16:17:00,
2013-10-02 12:32:00,73.4,48.3,30.00,NNE,22,5.3,-999.0,41,-99.99,,,0.00,Acu-Link.com,2013-10-02 16:32:00,
2013-10-02 12:47:00,74.1,47.5,30.00,NNW,337,4.2,-999.0,39,-99.99,,,0.00,Acu-Link.com,2013-10-02 16:47:00,
2013-10-02 13:02:00,74.7,47.4,30.00,NW,315,1.7,-999.0,38,-99.99,,,0.00,Acu-Link.com,2013-10-02 17:02:00,
2013-10-02 13:17:00,74.8,44.5,30.00,North,0,2.7,-999.0,34,-99.99,,,0.00,Acu-Link.com,2013-10-02 17:17:00,
2013-10-02 13:33:00,75.0,43.9,30.00,NW,315,3.2,-999.0,33,-99.99,,,0.00,Acu-Link.com,2013-10-02 17:33:00,
2013-10-02 13:48:00,74.8,43.8,29.99,NE,45,2.2,-999.0,33,-99.99,,,0.00,Acu-Link.com,2013-10-02 17:48:00,
2013-10-02 14:03:00,75.4,43.5,29.98,North,0,4.2,-999.0,32,-99.99,,,0.00,Acu-Link.com,2013-10-02 18:03:00,
2013-10-02 14:18:00,75.9,44.7,29.98,NNW,337,4.7,-999.0,33,-99.99,,,0.00,Acu-Link.com,2013-10-02 18:18:00,
2013-10-02 14:33:00,77.7,47.8,29.98,South,180,2.2,-999.0,35,-99.99,,,0.00,Acu-Link.com,2013-10-02 18:33:00,
2013-10-02 14:48:00,77.7,47.8,29.98,South,180,4.7,-999.0,35,-99.99,,,0.00,Acu-Link.com,2013-10-02 18:48:00,
2013-10-02 15:03:00,77.4,44.4,29.97,NNW,337,2.7,-999.0,31,-99.99,,,0.00,Acu-Link.com,2013-10-02 19:03:00,
2013-10-02 15:18:00,77.2,42.5,29.97,NNW,337,5.8,-999.0,29,-99.99,,,0.00,Acu-Link.com,2013-10-02 19:18:00,
2013-10-02 15:33:00,77.7,42.0,29.97,SE,135,1.1,-999.0,28,-99.99,,,0.00,Acu-Link.com,2013-10-02 19:33:00,
2013-10-02 15:49:00,77.7,43.8,29.96,South,180,0.0,-999.0,30,-99.99,,,0.00,Acu-Link.com,2013-10-02 19:49:00,
2013-10-02 16:04:00,77.5,41.8,29.96,North,0,2.7,-999.0,28,-99.99,,,0.00,Acu-Link.com,2013-10-02 20:04:00,
2013-10-02 16:19:00,77.5,44.5,29.95,West,270,1.7,-999.0,31,-99.99,,,0.00,Acu-Link.com,2013-10-02 20:19:00,
2013-10-02 16:34:00,78.3,42.5,29.95,West,270,1.7,-999.0,28,-99.99,,,0.00,Acu-Link.com,2013-10-02 20:34:00,
2013-10-02 16:49:00,78.3,42.5,29.95,NW,315,4.2,-999.0,28,-99.99,,,0.00,Acu-Link.com,2013-10-02 20:49:00,
2013-10-02 17:04:00,77.7,42.0,29.95,North,0,0.0,-999.0,28,-99.99,,,0.00,Acu-Link.com,2013-10-02 21:04:00,
2013-10-02 17:19:00,78.3,43.4,29.95,WNW,292,4.2,-999.0,29,-99.99,,,0.00,Acu-Link.com,2013-10-02 21:19:00,
2013-10-02 17:34:00,77.5,42.7,29.95,NW,315,2.2,-999.0,29,-99.99,,,0.00,Acu-Link.com,2013-10-02 21:34:00,
2013-10-02 17:49:00,80.1,43.1,29.95,NNW,337,1.7,-999.0,27,-99.99,,,0.00,Acu-Link.com,2013-10-02 21:49:00,
2013-10-02 18:05:00,81.3,43.1,29.95,NNW,337,3.2,-999.0,26,-99.99,,,0.00,Acu-Link.com,2013-10-02 22:05:00,
2013-10-02 18:20:00,77.7,42.9,29.95,NNW,337,2.2,-999.0,29,-99.99,,,0.00,Acu-Link.com,2013-10-02 22:20:00,
2013-10-02 18:35:00,76.3,43.4,29.95,NNW,337,1.7,-999.0,31,-99.99,,,0.00,Acu-Link.com,2013-10-02 22:35:00,
2013-10-02 18:50:00,73.4,46.2,29.95,NNW,337,0.0,-999.0,38,-99.99,,,0.00,Acu-Link.com,2013-10-02 22:50:00,
2013-10-02 19:05:00,68.9,47.8,29.96,ESE,112,0.0,-999.0,47,-99.99,,,0.00,Acu-Link.com,2013-10-02 23:05:00,
2013-10-02 19:20:00,64.2,49.1,29.96,ESE,112,0.0,-999.0,58,-99.99,,,0.00,Acu-Link.com,2013-10-02 23:20:00,
2013-10-02 19:35:00,62.2,48.1,29.96,ESE,112,0.0,-999.0,60,-99.99,,,0.00,Acu-Link.com,2013-10-02 23:35:00,
2013-10-02 19:50:00,59.9,47.7,29.96,East,90,0.0,-999.0,64,-99.99,,,0.00,Acu-Link.com,2013-10-02 23:50:00,
2013-10-02 20:05:00,57.4,47.3,29.97,ESE,112,0.0,-999.0,69,-99.99,,,0.00,Acu-Link.com,2013-10-03 00:05:00,
2013-10-02 20:21:00,56.3,46.3,29.97,NNE,22,0.0,-999.0,69,-99.99,,,0.00,Acu-Link.com,2013-10-03 00:21:00,
2013-10-02 20:36:00,54.5,46.7,29.97,ESE,112,0.0,-999.0,75,-99.99,,,0.00,Acu-Link.com,2013-10-03 00:36:00,
2013-10-02 20:51:00,53.6,45.5,29.98,SSE,157,0.0,-999.0,74,-99.99,,,0.00,Acu-Link.com,2013-10-03 00:51:00,
2013-10-02 21:06:00,52.5,45.2,29.99,South,180,0.0,-999.0,76,-99.99,,,0.00,Acu-Link.com,2013-10-03 01:06:00,
2013-10-02 21:21:00,51.6,45.0,29.99,South,180,0.0,-999.0,78,-99.99,,,0.00,Acu-Link.com,2013-10-03 01:21:00,
2013-10-02 21:36:00,50.9,45.3,29.99,NE,45,0.0,-999.0,81,-99.99,,,0.00,Acu-Link.com,2013-10-03 01:36:00,
2013-10-02 21:51:00,50.2,44.9,29.99,NNE,22,0.0,-999.0,82,-99.99,,,0.00,Acu-Link.com,2013-10-03 01:51:00,
2013-10-02 22:06:00,49.5,45.2,29.98,SE,135,0.0,-999.0,85,-99.99,,,0.00,Acu-Link.com,2013-10-03 02:06:00,
2013-10-02 22:21:00,49.5,45.8,29.98,NNE,22,0.0,-999.0,87,-99.99,,,0.00,Acu-Link.com,2013-10-03 02:21:00,
2013-10-02 22:36:00,49.3,46.2,29.99,SE,135,0.0,-999.0,89,-99.99,,,0.00,Acu-Link.com,2013-10-03 02:36:00,
2013-10-02 22:52:00,49.1,45.7,29.98,SSE,157,0.0,-999.0,88,-99.99,,,0.00,Acu-Link.com,2013-10-03 02:52:00,
2013-10-02 23:07:00,48.6,45.2,29.98,NNE,22,0.0,-999.0,88,-99.99,,,0.00,Acu-Link.com,2013-10-03 03:07:00,
2013-10-02 23:22:00,48.4,45.0,29.98,North,0,0.0,-999.0,88,-99.99,,,0.00,Acu-Link.com,2013-10-03 03:22:00,
2013-10-02 23:37:00,48.2,45.1,29.99,North,0,0.0,-999.0,89,-99.99,,,0.00,Acu-Link.com,2013-10-03 03:37:00,
2013-10-02 23:52:00,48.0,44.9,29.98,North,0,0.0,-999.0,89,-99.99,,,0.00,Acu-Link.com,2013-10-03 03:52:00,